createdAt,value
2019-04-20T00:02:37.928Z,49.20
2019-04-20T00:08:22.590Z,49.30
2019-04-20T00:13:57.722Z,49.60
2019-04-20T00:19:26.244Z,49.90
2019-04-20T00:24:59.374Z,50.30
2019-04-20T00:30:46.789Z,50.50
2019-04-20T00:35:57.300Z,50.90
2019-04-20T00:41:27.671Z,51.20
2019-04-20T00:47:08.609Z,51.30
2019-04-20T00:52:44.490Z,51.50
2019-04-20T00:58:10.343Z,51.70
2019-04-20T01:03:48.624Z,52.10
2019-04-20T01:09:05.463Z,52.40
2019-04-20T01:14:43.667Z,52.60
2019-04-20T01:20:08.821Z,52.80
2019-04-20T01:25:42.269Z,53.00
2019-04-20T01:31:19.855Z,53.00
2019-04-20T01:36:55.698Z,52.70
2019-04-20T01:42:13.057Z,53.40
2019-04-20T01:47:47.806Z,53.50
2019-04-20T01:53:37.745Z,53.80
2019-04-20T01:59:04.678Z,53.90
2019-04-20T02:04:43.154Z,54.10
2019-04-20T02:10:12.185Z,54.20
2019-04-20T02:15:47.928Z,54.20
2019-04-20T02:21:28.631Z,54.40
2019-04-20T02:26:43.496Z,54.40
2019-04-20T02:32:45.779Z,54.70
2019-04-20T02:38:22.547Z,54.80
2019-04-20T02:44:12.197Z,55.00
2019-04-20T02:49:33.707Z,55.10
2019-04-20T02:54:57.492Z,55.10
2019-04-20T03:00:17.855Z,55.40
2019-04-20T03:05:36.840Z,55.50
2019-04-20T03:11:26.231Z,56.30
2019-04-20T03:16:43.684Z,55.80
2019-04-20T03:22:24.584Z,56.00
2019-04-20T03:27:52.904Z,56.10
2019-04-20T03:33:51.392Z,56.40
2019-04-20T03:38:53.850Z,56.40
2019-04-20T03:44:12.694Z,56.50
2019-04-20T03:49:59.507Z,56.60
2019-04-20T03:55:35.640Z,56.80
2019-04-20T04:01:33.257Z,56.80
2019-04-20T04:06:44.406Z,57.10
2019-04-20T04:13:01.111Z,56.80
2019-04-20T04:18:37.244Z,57.30
2019-04-20T04:24:13.042Z,57.30
2019-04-20T04:29:55.939Z,57.60
2019-04-20T04:35:20.148Z,57.60
2019-04-20T04:41:09.887Z,57.70
2019-04-20T04:46:10.248Z,57.80
2019-04-20T04:51:47.472Z,57.80
2019-04-20T04:57:11.593Z,57.90
2019-04-20T05:02:48.805Z,58.00
2019-04-20T05:08:22.183Z,58.00
2019-04-20T05:13:50.566Z,58.10
2019-04-20T05:19:38.196Z,58.20
2019-04-20T05:25:12.893Z,58.20
2019-04-20T05:30:20.228Z,58.20
2019-04-20T05:36:14.689Z,58.10
2019-04-20T05:41:38.455Z,57.90
2019-04-20T05:47:11.372Z,57.70
2019-04-20T05:53:03.175Z,57.60
2019-04-20T05:58:16.516Z,57.40
2019-04-20T06:03:42.344Z,57.20
2019-04-20T06:14:47.118Z,56.70
2019-04-20T06:20:27.229Z,55.50
2019-04-20T06:26:12.725Z,55.10
2019-04-20T06:31:32.483Z,54.70
2019-04-20T06:36:57.380Z,54.10
2019-04-20T06:42:33.928Z,53.70
2019-04-20T06:48:08.577Z,53.30
2019-04-20T06:53:45.557Z,52.90
2019-04-20T06:59:11.962Z,52.50
2019-04-20T07:15:41.584Z,51.20
2019-04-20T07:21:41.685Z,50.40
2019-04-20T07:26:49.172Z,50.30
2019-04-20T07:32:17.740Z,50.10
2019-04-20T07:43:28.403Z,49.00
2019-04-20T07:49:02.678Z,50.20
2019-04-20T07:54:41.565Z,48.70
2019-04-20T07:59:59.869Z,48.30
2019-04-20T08:05:33.340Z,47.70
2019-04-20T08:11:12.357Z,46.80
2019-04-20T08:22:19.844Z,46.10
2019-04-20T08:27:33.891Z,45.50
2019-04-20T08:33:21.058Z,45.80
2019-04-20T08:39:13.903Z,45.20
2019-04-20T08:44:46.957Z,44.00
2019-04-20T08:50:21.213Z,44.20
2019-04-20T08:55:43.837Z,44.30
2019-04-20T09:01:01.724Z,43.70
2019-04-20T09:06:39.992Z,43.50
2019-04-20T09:12:17.978Z,43.00
2019-04-20T09:17:47.252Z,43.00
2019-04-20T09:23:34.117Z,42.60
2019-04-20T09:29:13.733Z,41.40
2019-04-20T09:34:46.577Z,41.40
2019-04-20T09:40:20.217Z,40.70
2019-04-20T09:45:47.384Z,40.60
2019-04-20T09:51:30.742Z,40.30
2019-04-20T09:57:27.602Z,40.00
2019-04-20T10:02:39.072Z,38.40
2019-04-20T10:08:09.889Z,38.90
2019-04-20T10:13:38.925Z,37.60
2019-04-20T10:19:11.679Z,37.00
2019-04-20T10:24:39.206Z,37.50
2019-04-20T10:30:08.777Z,37.10
2019-04-20T10:35:39.455Z,36.60
2019-04-20T10:41:16.614Z,36.70
2019-04-20T10:46:40.724Z,35.60
2019-04-20T10:52:10.120Z,34.60
2019-04-20T10:57:39.725Z,33.90
2019-04-20T11:03:10.589Z,34.30
2019-04-20T11:08:40.495Z,34.70
2019-04-20T11:14:17.976Z,34.10
2019-04-20T11:19:45.314Z,32.80
2019-04-20T11:25:14.447Z,32.90
2019-04-20T11:30:50.194Z,31.80
2019-04-20T11:36:19.599Z,31.40
2019-04-20T11:41:49.756Z,31.30
2019-04-20T11:47:29.592Z,31.60
2019-04-20T11:53:08.949Z,30.80
2019-04-20T11:58:38.842Z,30.20
2019-04-20T12:04:24.911Z,30.10
2019-04-20T12:09:41.825Z,29.60
2019-04-20T12:15:12.705Z,29.70
2019-04-20T12:20:44.952Z,30.30
2019-04-20T12:26:14.817Z,29.20
2019-04-20T12:31:52.239Z,28.20
2019-04-20T12:37:16.390Z,28.60
2019-04-20T12:42:46.620Z,28.80
2019-04-20T12:48:16.090Z,28.00
2019-04-20T12:53:46.646Z,27.80
2019-04-20T12:59:18.573Z,28.10
2019-04-20T13:04:49.067Z,28.10
2019-04-20T13:10:23.415Z,27.60
2019-04-20T13:16:08.223Z,27.50
2019-04-20T13:21:38.927Z,27.10
2019-04-20T13:27:11.131Z,27.20
2019-04-20T13:32:41.558Z,27.20
2019-04-20T13:38:12.014Z,27.20
2019-04-20T13:43:41.887Z,26.70
2019-04-20T13:49:11.255Z,25.90
2019-04-20T13:54:40.482Z,26.10
2019-04-20T14:00:22.444Z,25.70
2019-04-20T14:05:58.390Z,25.40
2019-04-20T14:11:29.418Z,25.30
2019-04-20T14:17:01.166Z,24.40
2019-04-20T14:22:31.325Z,23.70
2019-04-20T14:28:00.812Z,20.20
2019-04-20T14:33:30.752Z,18.10
2019-04-20T14:39:00.494Z,16.80
2019-04-20T14:44:29.979Z,15.20
2019-04-20T14:50:01.667Z,14.90
2019-04-20T14:55:31.392Z,14.70
2019-04-20T15:01:02.654Z,14.40
2019-04-20T15:06:35.000Z,14.80
2019-04-20T15:12:04.461Z,16.80
2019-04-20T15:17:45.812Z,18.60
2019-04-20T15:23:17.481Z,18.90
2019-04-20T15:28:50.794Z,19.70
2019-04-20T15:34:21.205Z,19.70
2019-04-20T15:39:54.930Z,19.10
2019-04-20T15:45:25.335Z,18.60
2019-04-20T15:50:56.126Z,19.00
2019-04-20T15:56:29.128Z,20.20
2019-04-20T16:02:03.116Z,20.90
2019-04-20T16:07:42.266Z,20.90
2019-04-20T16:13:13.472Z,20.80
2019-04-20T16:18:35.020Z,21.30
2019-04-20T16:24:10.840Z,21.40
2019-04-20T16:29:39.722Z,21.40
2019-04-20T16:35:10.889Z,21.60
2019-04-20T16:40:42.096Z,21.80
2019-04-20T16:46:11.540Z,21.70
2019-04-20T16:51:41.153Z,21.70
2019-04-20T16:57:12.505Z,22.00
2019-04-20T17:02:42.380Z,22.00
2019-04-20T17:08:13.082Z,22.30
2019-04-20T17:13:49.569Z,22.50
2019-04-20T17:19:15.573Z,22.20
2019-04-20T17:24:45.399Z,22.20
2019-04-20T17:30:27.036Z,22.50
2019-04-20T17:36:04.539Z,22.70
2019-04-20T17:41:53.001Z,22.80
2019-04-20T17:47:18.485Z,23.10
2019-04-20T17:52:52.349Z,23.30
2019-04-20T17:58:01.698Z,23.60
2019-04-20T18:04:08.058Z,23.90
2019-04-20T18:09:25.451Z,24.10
2019-04-20T18:14:50.100Z,24.30
2019-04-20T18:20:09.861Z,24.30
2019-04-20T18:26:04.775Z,24.90
2019-04-20T18:31:13.358Z,24.80
2019-04-20T18:36:46.199Z,24.90
2019-04-20T18:42:23.955Z,25.10
2019-04-20T18:48:06.584Z,25.40
2019-04-20T18:53:28.666Z,25.70
2019-04-20T18:58:53.528Z,26.10
2019-04-20T19:04:23.709Z,26.00
2019-04-20T19:10:01.908Z,26.10
2019-04-20T19:15:47.861Z,26.40
2019-04-20T19:21:06.860Z,26.70
2019-04-20T19:26:38.476Z,27.20
2019-04-20T19:32:23.908Z,27.80
2019-04-20T19:37:51.618Z,28.90
2019-04-20T19:43:22.587Z,29.10
2019-04-20T19:48:52.672Z,29.60
2019-04-20T19:54:35.515Z,29.80
2019-04-20T19:59:50.824Z,30.70
2019-04-20T20:05:19.203Z,30.80
2019-04-20T20:10:48.627Z,31.70
2019-04-20T20:16:27.298Z,32.50
2019-04-20T20:22:02.626Z,33.00
2019-04-20T20:27:31.366Z,33.70
2019-04-20T20:33:13.936Z,34.30
2019-04-20T20:38:35.222Z,34.60
2019-04-20T20:44:03.672Z,35.10
2019-04-20T20:49:47.066Z,35.50
2019-04-20T20:55:06.735Z,35.90
2019-04-20T21:00:42.887Z,36.30
2019-04-20T21:06:03.504Z,36.80
2019-04-20T21:11:36.089Z,37.10
2019-04-20T21:17:12.358Z,37.50
2019-04-20T21:22:54.506Z,38.20
2019-04-20T21:28:06.983Z,38.30
2019-04-20T21:33:39.695Z,38.70
2019-04-20T21:39:16.516Z,39.10
2019-04-20T21:44:42.961Z,39.20
2019-04-20T21:50:26.782Z,39.80
2019-04-20T21:55:43.856Z,40.20
2019-04-20T22:01:22.250Z,40.50
2019-04-20T22:06:46.541Z,40.90
2019-04-20T22:12:16.094Z,41.20
2019-04-20T22:17:46.486Z,41.10
2019-04-20T22:23:32.934Z,41.50
2019-04-20T22:28:47.973Z,41.70
2019-04-20T22:34:20.944Z,41.50
2019-04-20T22:39:53.933Z,42.60
2019-04-20T22:45:23.297Z,42.70
2019-04-20T22:51:17.830Z,43.30
2019-04-20T22:56:39.707Z,43.50
2019-04-20T23:01:59.865Z,43.70
2019-04-20T23:07:26.527Z,43.80
2019-04-20T23:12:59.584Z,44.00
2019-04-20T23:18:28.738Z,44.10
2019-04-20T23:24:00.427Z,44.40
2019-04-20T23:29:33.976Z,44.60
2019-04-20T23:35:04.930Z,44.90
2019-04-20T23:40:32.058Z,45.00
2019-04-20T23:46:24.045Z,45.10
2019-04-20T23:52:09.741Z,45.30
2019-04-20T23:57:21.849Z,45.70
